Terminal Aerodrome Forecast
Issued by NWS Quad Cities IA IL

Home | Current Version | Previous Version | Text Only | Print | Product List | Glossary On
Versions: 1 2 3 4 5 6 7 8 9 10 11 12 13 14 15 16 17
000
FTUS43 KDVN 201100
TAFMLI
TAF
KMLI 201120Z 2012/2112 18008KT P6SM SCT110 BKN250
     FM201600 20012G15KT P6SM SCT110 OVC250
     FM210000 19008KT P6SM SCT110 OVC250
     FM210600 19007KT 6SM BR FEW050 OVC080=

USA.gov is the U.S. government's official web portal to all federal, state and local government web resources and services.